createdAt,value
2023-05-07T00:00:33.692Z,31.70
2023-05-07T00:01:33.805Z,31.72
2023-05-07T00:02:33.834Z,31.67
2023-05-07T00:03:33.918Z,31.69
2023-05-07T00:04:33.914Z,31.76
2023-05-07T00:05:33.970Z,31.73
2023-05-07T00:06:33.982Z,31.73
2023-05-07T00:07:34.045Z,31.76
2023-05-07T00:08:34.113Z,31.75
2023-05-07T00:09:34.193Z,31.76
2023-05-07T00:10:34.234Z,31.75
2023-05-07T00:11:35.133Z,31.72
2023-05-07T00:12:34.439Z,31.77
2023-05-07T00:13:34.291Z,31.72
2023-05-07T00:14:34.321Z,31.75
2023-05-07T00:15:34.315Z,31.73
2023-05-07T00:16:34.429Z,31.68
2023-05-07T00:17:34.440Z,31.69
2023-05-07T00:18:34.367Z,31.62
2023-05-07T00:19:34.363Z,31.70
2023-05-07T00:20:36.099Z,31.64
2023-05-07T00:21:34.385Z,31.73
2023-05-07T00:22:34.394Z,31.70
2023-05-07T00:23:34.568Z,31.68
2023-05-07T00:24:34.422Z,31.72
2023-05-07T00:25:34.449Z,31.70
2023-05-07T00:26:34.444Z,31.65
2023-05-07T00:27:34.428Z,31.66
2023-05-07T00:28:34.448Z,31.74
2023-05-07T00:29:34.461Z,31.71
2023-05-07T00:30:34.473Z,31.67
2023-05-07T00:31:34.532Z,31.66
2023-05-07T00:32:34.515Z,31.71
2023-05-07T00:33:34.540Z,31.73
2023-05-07T00:34:34.510Z,31.66
2023-05-07T00:35:34.567Z,31.69
2023-05-07T00:36:34.624Z,31.67
2023-05-07T00:37:34.661Z,31.73
2023-05-07T00:38:34.698Z,31.73
2023-05-07T00:39:34.743Z,31.74
2023-05-07T00:40:34.897Z,31.69
2023-05-07T00:41:34.851Z,31.75
2023-05-07T00:42:34.878Z,31.66
2023-05-07T00:43:34.915Z,31.69
2023-05-07T00:44:34.991Z,31.70
2023-05-07T00:45:35.049Z,31.67
2023-05-07T00:46:35.237Z,31.76
2023-05-07T00:47:35.191Z,31.72
2023-05-07T00:48:35.172Z,31.75
2023-05-07T00:49:35.362Z,31.71
2023-05-07T00:50:35.283Z,31.80
2023-05-07T00:51:35.331Z,31.71
2023-05-07T00:52:35.364Z,31.73
2023-05-07T00:53:35.373Z,31.72
2023-05-07T00:54:35.376Z,31.81
2023-05-07T00:55:35.477Z,31.74
2023-05-07T00:56:35.458Z,31.78
2023-05-07T00:57:35.497Z,31.77
2023-05-07T00:58:35.552Z,31.79
2023-05-07T00:59:35.591Z,31.77
2023-05-07T01:00:35.643Z,31.70
2023-05-07T01:01:35.799Z,31.79
2023-05-07T01:02:35.902Z,31.78
2023-05-07T01:03:35.806Z,31.77
2023-05-07T01:04:35.927Z,31.80
2023-05-07T01:05:35.925Z,31.82
2023-05-07T01:06:36.029Z,31.90
2023-05-07T01:07:36.117Z,31.78
2023-05-07T01:08:36.177Z,31.78
2023-05-07T01:09:36.207Z,31.78
2023-05-07T01:10:36.251Z,31.82
2023-05-07T01:11:36.307Z,31.83
2023-05-07T01:12:36.427Z,31.81
2023-05-07T01:13:36.403Z,31.81
2023-05-07T01:14:36.442Z,31.84
2023-05-07T01:15:36.476Z,31.83
2023-05-07T01:16:36.555Z,31.82
2023-05-07T01:17:36.590Z,31.85
2023-05-07T01:18:36.629Z,31.81
2023-05-07T01:19:36.667Z,31.86
2023-05-07T01:20:36.707Z,31.72
2023-05-07T01:21:36.764Z,31.78
2023-05-07T01:22:36.802Z,31.86
2023-05-07T01:23:36.844Z,31.78
2023-05-07T01:24:36.913Z,31.75
2023-05-07T01:25:36.958Z,31.74
2023-05-07T01:26:37.006Z,31.72
2023-05-07T01:27:37.081Z,31.69
2023-05-07T01:28:37.153Z,31.74
2023-05-07T01:29:37.220Z,31.76
2023-05-07T01:30:37.281Z,31.80
2023-05-07T01:31:37.456Z,31.77
2023-05-07T01:32:37.503Z,31.80
2023-05-07T01:33:37.537Z,31.78
2023-05-07T01:34:37.617Z,31.77
2023-05-07T01:35:37.686Z,31.75
2023-05-07T01:36:37.712Z,31.71
2023-05-07T01:37:37.845Z,31.72
2023-05-07T01:38:37.844Z,31.75
2023-05-07T01:39:37.869Z,31.71
2023-05-07T01:40:37.909Z,31.72
2023-05-07T01:41:37.982Z,31.69
2023-05-07T01:42:38.010Z,31.72
2023-05-07T01:43:38.023Z,31.70
2023-05-07T01:44:38.101Z,31.82
2023-05-07T01:45:38.135Z,31.82
2023-05-07T01:46:38.261Z,31.81
2023-05-07T01:47:38.322Z,31.85
2023-05-07T01:48:38.328Z,31.75
2023-05-07T01:49:38.380Z,31.72
2023-05-07T01:50:38.424Z,31.72
2023-05-07T01:51:38.515Z,31.79
2023-05-07T01:52:38.635Z,31.74
2023-05-07T01:53:38.701Z,31.74
2023-05-07T01:54:38.715Z,31.71
2023-05-07T01:55:38.776Z,31.72
2023-05-07T01:56:38.837Z,31.71
2023-05-07T01:57:38.921Z,31.72
2023-05-07T01:58:38.932Z,31.72
2023-05-07T01:59:39.028Z,31.79
2023-05-07T02:00:39.077Z,31.80
2023-05-07T02:01:39.203Z,31.72
2023-05-07T02:02:39.382Z,31.73
2023-05-07T02:03:39.371Z,31.74
2023-05-07T02:04:39.317Z,31.71
2023-05-07T02:05:39.323Z,31.72
2023-05-07T02:06:39.381Z,31.72
2023-05-07T02:07:39.448Z,31.71
2023-05-07T02:08:39.519Z,31.75
2023-05-07T02:09:39.552Z,31.75
2023-05-07T02:10:39.597Z,31.86
2023-05-07T02:11:39.653Z,31.81
2023-05-07T02:12:39.750Z,31.76
2023-05-07T02:13:39.708Z,31.78
2023-05-07T02:14:39.748Z,31.71
2023-05-07T02:15:39.749Z,31.76
2023-05-07T02:16:39.793Z,31.75
2023-05-07T02:17:39.909Z,31.70
2023-05-07T02:18:39.869Z,31.71
2023-05-07T02:19:39.928Z,31.73
2023-05-07T02:20:39.968Z,31.78
2023-05-07T02:21:39.993Z,31.80
2023-05-07T02:22:39.997Z,31.77
2023-05-07T02:23:40.036Z,31.73
2023-05-07T02:24:40.061Z,31.73
2023-05-07T02:25:40.102Z,31.69
2023-05-07T02:26:40.130Z,31.72
2023-05-07T02:27:40.186Z,31.73
2023-05-07T02:28:40.246Z,31.80
2023-05-07T02:29:40.255Z,31.78
2023-05-07T02:30:40.270Z,31.73
2023-05-07T02:31:40.284Z,31.72
2023-05-07T02:32:40.334Z,31.73
2023-05-07T02:33:40.365Z,31.71
2023-05-07T02:34:40.345Z,31.68
2023-05-07T02:35:40.409Z,31.71
2023-05-07T02:36:40.359Z,31.68
2023-05-07T02:37:40.398Z,31.68
2023-05-07T02:38:40.470Z,31.70
2023-05-07T02:39:40.425Z,31.66
2023-05-07T02:40:40.470Z,31.65
2023-05-07T02:41:40.577Z,31.63
2023-05-07T02:42:40.582Z,31.66
2023-05-07T02:43:40.584Z,31.70
2023-05-07T02:44:40.616Z,31.70
2023-05-07T02:45:40.633Z,31.68
2023-05-07T02:46:40.638Z,31.69
2023-05-07T02:47:40.668Z,31.64
2023-05-07T02:48:40.658Z,31.64
2023-05-07T02:49:40.672Z,31.65
2023-05-07T02:50:40.701Z,31.61
2023-05-07T02:51:40.692Z,31.61
2023-05-07T02:52:40.714Z,31.63
2023-05-07T02:53:40.736Z,31.61
2023-05-07T02:54:40.771Z,31.63
2023-05-07T02:55:40.766Z,31.62
2023-05-07T02:56:40.817Z,31.62
2023-05-07T02:57:40.941Z,31.62
2023-05-07T02:58:40.968Z,31.61
2023-05-07T02:59:40.955Z,31.64
2023-05-07T03:00:40.965Z,31.62
2023-05-07T03:01:41.040Z,31.63
2023-05-07T03:02:41.123Z,31.64
2023-05-07T03:03:41.176Z,31.60
2023-05-07T03:04:41.188Z,31.62
2023-05-07T03:05:41.230Z,31.63
2023-05-07T03:06:41.265Z,31.61
2023-05-07T03:07:41.401Z,31.60
2023-05-07T03:08:41.419Z,31.62
2023-05-07T03:09:41.446Z,31.59
2023-05-07T03:10:41.505Z,31.60
2023-05-07T03:11:41.572Z,31.57
2023-05-07T03:12:41.611Z,31.58
2023-05-07T03:13:41.663Z,31.58
2023-05-07T03:14:41.650Z,31.56
2023-05-07T03:15:41.722Z,31.58
2023-05-07T03:16:41.722Z,31.57
2023-05-07T03:17:41.853Z,31.56
2023-05-07T03:18:41.897Z,31.58
2023-05-07T03:19:41.791Z,31.60
2023-05-07T03:20:41.885Z,31.58
2023-05-07T03:21:41.862Z,31.61
2023-05-07T03:22:41.871Z,31.57
2023-05-07T03:23:41.857Z,31.57
2023-05-07T03:24:41.907Z,31.57
2023-05-07T03:25:41.920Z,31.56
2023-05-07T03:26:41.937Z,31.54
2023-05-07T03:27:41.947Z,31.56
2023-05-07T03:28:42.002Z,31.58
2023-05-07T03:29:42.081Z,31.59
2023-05-07T03:30:42.042Z,31.58
2023-05-07T03:31:42.117Z,31.63
2023-05-07T03:32:42.134Z,31.56
2023-05-07T03:33:42.091Z,31.60
2023-05-07T03:34:42.126Z,31.57
2023-05-07T03:35:42.118Z,31.55
2023-05-07T03:36:42.157Z,31.60
2023-05-07T03:37:42.195Z,31.59
2023-05-07T03:38:42.203Z,31.59
2023-05-07T03:39:42.237Z,31.56
2023-05-07T03:40:42.269Z,31.58
2023-05-07T03:41:42.277Z,31.61
2023-05-07T03:42:42.313Z,31.61
2023-05-07T03:43:42.308Z,31.58
2023-05-07T03:44:42.343Z,31.57
2023-05-07T03:45:42.376Z,31.54
2023-05-07T03:46:42.442Z,31.57
2023-05-07T03:47:42.486Z,31.57
2023-05-07T03:48:42.453Z,31.56
2023-05-07T03:49:42.492Z,31.57
2023-05-07T03:50:42.525Z,31.61
2023-05-07T03:51:42.500Z,31.58
2023-05-07T03:52:42.555Z,31.58
2023-05-07T03:53:42.566Z,31.57
2023-05-07T03:54:42.569Z,31.58
2023-05-07T03:55:42.604Z,31.61
2023-05-07T03:56:42.602Z,31.59
2023-05-07T03:57:42.614Z,31.57
2023-05-07T03:58:42.665Z,31.63
2023-05-07T03:59:42.634Z,31.61
2023-05-07T04:00:42.679Z,31.57
2023-05-07T04:01:42.926Z,31.57
2023-05-07T04:02:42.914Z,31.58
2023-05-07T04:03:42.801Z,31.57
2023-05-07T04:04:42.768Z,31.60
2023-05-07T04:05:42.788Z,31.56
2023-05-07T04:06:42.770Z,31.56
2023-05-07T04:07:42.798Z,31.57
2023-05-07T04:08:42.812Z,31.57
2023-05-07T04:09:42.812Z,31.62
2023-05-07T04:10:42.843Z,31.57
2023-05-07T04:11:42.857Z,31.58
2023-05-07T04:12:42.922Z,31.54
2023-05-07T04:13:42.876Z,31.57
2023-05-07T04:14:42.913Z,31.54
2023-05-07T04:15:42.893Z,31.55
2023-05-07T04:16:42.937Z,31.60
2023-05-07T04:17:43.053Z,31.58
2023-05-07T04:18:42.917Z,31.60
2023-05-07T04:19:42.910Z,31.60
2023-05-07T04:20:42.916Z,31.55
2023-05-07T04:21:42.917Z,31.56
2023-05-07T04:22:42.931Z,31.53
2023-05-07T04:23:42.923Z,31.59
2023-05-07T04:24:42.937Z,31.58
2023-05-07T04:25:42.925Z,31.53
2023-05-07T04:26:42.967Z,31.53
2023-05-07T04:27:42.954Z,31.53
2023-05-07T04:28:42.965Z,31.51
2023-05-07T04:29:42.958Z,31.54
2023-05-07T04:30:42.950Z,31.52
2023-05-07T04:31:43.006Z,31.56
2023-05-07T04:32:43.063Z,31.57
2023-05-07T04:33:42.977Z,31.54
2023-05-07T04:34:42.983Z,31.59
2023-05-07T04:35:42.987Z,31.57
2023-05-07T04:36:43.004Z,31.51
2023-05-07T04:37:43.023Z,31.53
2023-05-07T04:38:43.002Z,31.56
2023-05-07T04:39:43.027Z,31.52
2023-05-07T04:40:43.021Z,31.51
2023-05-07T04:41:43.046Z,31.55
2023-05-07T04:42:43.039Z,31.52
2023-05-07T04:43:43.037Z,31.50
2023-05-07T04:44:43.058Z,31.52
2023-05-07T04:45:43.057Z,31.54
2023-05-07T04:46:43.049Z,31.54
2023-05-07T04:47:43.101Z,31.53
2023-05-07T04:48:43.065Z,31.57
2023-05-07T04:49:43.163Z,31.48
2023-05-07T04:50:43.089Z,31.51
2023-05-07T04:51:43.088Z,31.49
2023-05-07T04:52:43.112Z,31.50
2023-05-07T04:53:43.123Z,31.49
2023-05-07T04:54:43.128Z,31.53
2023-05-07T04:55:43.140Z,31.49
2023-05-07T04:56:43.141Z,31.48
2023-05-07T04:57:43.190Z,31.49
2023-05-07T04:58:43.166Z,31.51
2023-05-07T04:59:43.177Z,31.50
2023-05-07T05:00:43.182Z,31.48
2023-05-07T05:01:43.272Z,31.52
2023-05-07T05:02:43.320Z,31.46
2023-05-07T05:03:43.271Z,31.49
2023-05-07T05:04:43.272Z,31.50
2023-05-07T05:05:43.398Z,31.50
2023-05-07T05:06:43.295Z,31.45
2023-05-07T05:07:43.324Z,31.49
2023-05-07T05:08:43.335Z,31.49
2023-05-07T05:09:43.376Z,31.44
2023-05-07T05:10:43.403Z,31.43
2023-05-07T05:11:43.419Z,31.45
2023-05-07T05:12:43.476Z,31.43
2023-05-07T05:13:43.475Z,31.42
2023-05-07T05:14:43.533Z,31.43
2023-05-07T05:15:43.610Z,31.47
2023-05-07T05:16:43.639Z,31.45
2023-05-07T05:17:43.709Z,31.49
2023-05-07T05:18:43.738Z,31.47
2023-05-07T05:19:43.743Z,31.41
2023-05-07T05:20:43.801Z,31.41
2023-05-07T05:21:43.861Z,31.42
2023-05-07T05:22:43.926Z,31.47
2023-05-07T05:23:43.982Z,31.48
2023-05-07T05:24:44.047Z,31.46
2023-05-07T05:25:44.110Z,31.46
2023-05-07T05:26:44.147Z,31.44
2023-05-07T05:27:44.239Z,31.46
2023-05-07T05:28:44.311Z,31.41
2023-05-07T05:29:44.353Z,31.41
2023-05-07T05:30:44.408Z,31.40
2023-05-07T05:31:44.471Z,31.38
2023-05-07T05:32:44.483Z,31.38
2023-05-07T05:33:44.463Z,31.44
2023-05-07T05:34:44.476Z,31.39
2023-05-07T05:35:44.485Z,31.38
2023-05-07T05:36:44.507Z,31.37
2023-05-07T05:37:44.528Z,31.35
2023-05-07T05:38:44.545Z,31.37
2023-05-07T05:39:44.552Z,31.35
2023-05-07T05:40:44.574Z,31.31
2023-05-07T05:41:44.635Z,31.36
2023-05-07T05:42:44.692Z,31.42
2023-05-07T05:43:44.752Z,31.38
2023-05-07T05:44:44.814Z,31.39
2023-05-07T05:45:44.865Z,31.36
2023-05-07T05:46:45.061Z,31.37
2023-05-07T05:47:45.250Z,31.36
2023-05-07T05:48:44.938Z,31.37
2023-05-07T05:49:44.957Z,31.33
2023-05-07T05:50:44.999Z,31.36
2023-05-07T05:51:45.036Z,31.32
2023-05-07T05:52:45.140Z,31.29
2023-05-07T05:53:45.191Z,31.32
2023-05-07T05:54:45.278Z,31.29
2023-05-07T05:55:45.252Z,31.32
2023-05-07T05:56:45.291Z,31.35
2023-05-07T05:57:45.349Z,31.30
2023-05-07T05:58:45.434Z,31.32
2023-05-07T05:59:45.500Z,31.26
2023-05-07T06:00:45.554Z,31.32
2023-05-07T06:01:45.741Z,31.33
2023-05-07T06:02:45.777Z,31.38
2023-05-07T06:03:45.714Z,31.31
2023-05-07T06:04:45.793Z,31.34
2023-05-07T06:05:45.771Z,31.31
2023-05-07T06:06:45.778Z,31.29
2023-05-07T06:07:45.814Z,31.26
2023-05-07T06:08:45.839Z,31.28
2023-05-07T06:09:45.914Z,31.30
2023-05-07T06:10:45.860Z,31.25
2023-05-07T06:11:45.902Z,31.23
2023-05-07T06:12:46.033Z,31.25
2023-05-07T06:13:46.009Z,31.25
2023-05-07T06:14:46.070Z,31.26
2023-05-07T06:15:46.136Z,31.27
2023-05-07T06:16:46.239Z,31.26
2023-05-07T06:17:46.816Z,31.28
2023-05-07T06:18:46.440Z,31.26
2023-05-07T06:19:46.448Z,31.26
2023-05-07T06:20:46.532Z,31.27
2023-05-07T06:21:46.564Z,31.28
2023-05-07T06:22:46.689Z,31.30
2023-05-07T06:23:46.655Z,31.27
2023-05-07T06:24:46.729Z,31.26
2023-05-07T06:25:46.797Z,31.28
2023-05-07T06:26:46.861Z,31.24
2023-05-07T06:27:46.931Z,31.25
2023-05-07T06:28:46.968Z,31.23
2023-05-07T06:29:47.023Z,31.26
2023-05-07T06:30:47.059Z,31.27
2023-05-07T06:31:47.110Z,31.30
2023-05-07T06:32:47.162Z,31.25
2023-05-07T06:33:47.163Z,31.26
2023-05-07T06:34:47.212Z,31.26
2023-05-07T06:35:47.286Z,31.23
2023-05-07T06:36:47.325Z,31.21
2023-05-07T06:37:47.371Z,31.19
2023-05-07T06:38:47.437Z,31.21
2023-05-07T06:39:47.492Z,31.26
2023-05-07T06:40:47.576Z,31.23
2023-05-07T06:41:47.711Z,31.21
2023-05-07T06:42:47.696Z,31.23
2023-05-07T06:43:47.746Z,31.23
2023-05-07T06:44:47.781Z,31.29
2023-05-07T06:45:47.891Z,31.24
2023-05-07T06:46:47.956Z,31.23
2023-05-07T06:47:48.050Z,31.24
2023-05-07T06:48:47.972Z,31.24
2023-05-07T06:49:47.979Z,31.24
2023-05-07T06:50:48.073Z,31.21
2023-05-07T06:51:48.024Z,31.23
2023-05-07T06:52:48.032Z,31.23
2023-05-07T06:53:48.082Z,31.19
2023-05-07T06:54:48.062Z,31.17
2023-05-07T06:55:48.124Z,31.15
2023-05-07T06:56:48.268Z,31.20
2023-05-07T06:57:48.293Z,31.17
2023-05-07T06:58:48.377Z,31.16
2023-05-07T06:59:48.440Z,31.22
2023-05-07T07:00:48.517Z,31.18
2023-05-07T07:01:48.606Z,31.16
2023-05-07T07:02:48.665Z,31.19
2023-05-07T07:03:48.747Z,31.17
2023-05-07T07:04:48.836Z,31.19
2023-05-07T07:05:48.868Z,31.21
2023-05-07T07:06:48.955Z,31.21
2023-05-07T07:07:49.010Z,31.16
2023-05-07T07:08:49.113Z,31.15
2023-05-07T07:09:49.193Z,31.16
2023-05-07T07:10:49.233Z,31.13
2023-05-07T07:11:49.216Z,31.15
2023-05-07T07:12:49.281Z,31.15
2023-05-07T07:13:49.406Z,31.14
2023-05-07T07:14:49.271Z,31.14
2023-05-07T07:15:49.303Z,31.11
2023-05-07T07:16:49.292Z,31.14
2023-05-07T07:17:49.326Z,31.11
2023-05-07T07:18:49.312Z,31.08
2023-05-07T07:19:49.329Z,31.05
2023-05-07T07:20:49.330Z,30.99
2023-05-07T07:21:49.375Z,30.99
2023-05-07T07:22:49.375Z,30.96
2023-05-07T07:23:49.364Z,31.00
2023-05-07T07:24:49.463Z,31.00
2023-05-07T07:25:49.536Z,30.98
2023-05-07T07:26:49.616Z,31.00
2023-05-07T07:27:49.692Z,30.97
2023-05-07T07:28:49.803Z,30.95
2023-05-07T07:29:49.850Z,30.95
2023-05-07T07:30:50.008Z,30.94
2023-05-07T07:31:50.120Z,30.93
2023-05-07T07:32:50.125Z,30.87
2023-05-07T07:33:52.343Z,30.88
2023-05-07T07:34:50.165Z,30.88
2023-05-07T07:35:50.173Z,30.82
2023-05-07T07:36:50.176Z,30.84
2023-05-07T07:37:50.210Z,30.83
2023-05-07T07:38:50.205Z,30.78
2023-05-07T07:39:50.238Z,30.76
2023-05-07T07:40:50.233Z,30.77
2023-05-07T07:41:50.249Z,30.76
2023-05-07T07:42:50.276Z,30.76
2023-05-07T07:43:50.284Z,30.70
2023-05-07T07:44:50.282Z,30.75
2023-05-07T07:45:50.376Z,30.73
2023-05-07T07:46:50.357Z,30.74
2023-05-07T07:47:50.368Z,30.72
2023-05-07T07:48:50.338Z,30.78
2023-05-07T07:49:50.358Z,30.75
2023-05-07T07:50:50.370Z,30.72
2023-05-07T07:51:50.366Z,30.72
2023-05-07T07:52:50.412Z,30.72
2023-05-07T07:53:50.423Z,30.67
2023-05-07T07:54:50.448Z,30.66
2023-05-07T07:55:50.419Z,30.68
2023-05-07T07:56:50.416Z,30.66
2023-05-07T07:57:50.817Z,30.62
2023-05-07T07:58:50.426Z,30.61
2023-05-07T07:59:50.444Z,30.62
2023-05-07T08:00:50.456Z,30.63
2023-05-07T08:01:51.448Z,30.63
2023-05-07T08:02:50.646Z,30.63
2023-05-07T08:03:50.552Z,30.62
2023-05-07T08:04:50.589Z,30.62
2023-05-07T08:05:50.657Z,30.58
2023-05-07T08:06:50.714Z,30.59
2023-05-07T08:07:50.799Z,30.57
2023-05-07T08:08:50.855Z,30.58
2023-05-07T08:09:50.907Z,30.55
2023-05-07T08:10:51.009Z,30.51
2023-05-07T08:11:51.069Z,30.53
2023-05-07T08:12:51.174Z,30.52
2023-05-07T08:13:51.203Z,30.49
2023-05-07T08:14:51.228Z,30.51
2023-05-07T08:15:51.316Z,30.52
2023-05-07T08:16:51.408Z,30.47
2023-05-07T08:17:51.636Z,30.46
2023-05-07T08:18:51.505Z,30.49
2023-05-07T08:19:51.558Z,30.46
2023-05-07T08:20:51.608Z,30.45
2023-05-07T08:21:51.728Z,30.42
2023-05-07T08:22:51.763Z,30.42
2023-05-07T08:23:51.813Z,30.40
2023-05-07T08:24:51.874Z,30.38
2023-05-07T08:25:51.940Z,30.41
2023-05-07T08:26:51.974Z,30.36
2023-05-07T08:27:52.084Z,30.33
2023-05-07T08:28:52.141Z,30.38
2023-05-07T08:29:52.147Z,30.33
2023-05-07T08:30:52.247Z,30.37
2023-05-07T08:31:52.262Z,30.33
2023-05-07T08:32:52.362Z,30.31
2023-05-07T08:33:52.366Z,30.28
2023-05-07T08:34:52.435Z,30.26
2023-05-07T08:35:52.487Z,30.26
2023-05-07T08:36:52.579Z,30.25
2023-05-07T08:37:52.586Z,30.25
2023-05-07T08:38:52.654Z,30.22
2023-05-07T08:39:52.709Z,30.22
2023-05-07T08:40:52.744Z,30.21
2023-05-07T08:41:52.777Z,30.21
2023-05-07T08:42:52.826Z,30.21
2023-05-07T08:43:52.920Z,30.18
2023-05-07T08:44:52.936Z,30.18
2023-05-07T08:45:53.048Z,30.13
2023-05-07T08:46:53.141Z,30.16
2023-05-07T08:47:53.184Z,30.12
2023-05-07T08:48:53.172Z,30.11
2023-05-07T08:49:53.230Z,30.09
2023-05-07T08:50:53.247Z,30.08
2023-05-07T08:51:53.257Z,30.06
2023-05-07T08:52:53.325Z,30.06
2023-05-07T08:53:53.379Z,30.07
2023-05-07T08:54:53.398Z,30.06
2023-05-07T08:55:53.423Z,30.06
2023-05-07T08:56:53.484Z,30.03
2023-05-07T08:57:53.518Z,30.00
2023-05-07T08:58:53.558Z,30.01
2023-05-07T08:59:53.616Z,29.98
2023-05-07T09:00:53.638Z,29.95
2023-05-07T09:01:53.780Z,29.91
2023-05-07T09:02:53.769Z,29.92
2023-05-07T09:03:53.795Z,29.94
2023-05-07T09:04:53.799Z,29.90
2023-05-07T09:05:53.832Z,29.86
2023-05-07T09:06:53.869Z,29.84
2023-05-07T09:07:54.694Z,29.81
2023-05-07T09:08:53.954Z,29.78
2023-05-07T09:09:53.992Z,29.80
2023-05-07T09:10:53.993Z,29.81
2023-05-07T09:11:53.989Z,29.79
2023-05-07T09:12:54.014Z,29.78
2023-05-07T09:13:54.000Z,29.76
2023-05-07T09:14:54.009Z,29.73
2023-05-07T09:15:54.056Z,29.73
2023-05-07T09:16:53.996Z,29.71
2023-05-07T09:17:54.025Z,29.73
2023-05-07T09:18:53.999Z,29.66
2023-05-07T09:19:54.025Z,29.64
2023-05-07T09:20:54.034Z,29.64
2023-05-07T09:21:54.037Z,29.60
2023-05-07T09:22:54.057Z,29.59
2023-05-07T09:23:54.075Z,29.57
2023-05-07T09:24:54.078Z,29.53
2023-05-07T09:25:54.109Z,29.57
2023-05-07T09:26:54.113Z,29.52
2023-05-07T09:27:54.147Z,29.51
2023-05-07T09:28:54.206Z,29.48
2023-05-07T09:29:54.165Z,29.48
2023-05-07T09:30:54.187Z,29.47
2023-05-07T09:31:54.246Z,29.47
2023-05-07T09:32:54.288Z,29.44
2023-05-07T09:33:54.261Z,29.43
2023-05-07T09:34:54.280Z,29.42
2023-05-07T09:35:54.338Z,29.42
2023-05-07T09:36:54.361Z,29.38
2023-05-07T09:37:54.581Z,29.36
2023-05-07T09:38:54.427Z,29.34
2023-05-07T09:39:54.443Z,29.31
2023-05-07T09:40:54.475Z,29.28
2023-05-07T09:41:54.479Z,29.29
2023-05-07T09:42:54.507Z,29.29
2023-05-07T09:43:54.545Z,29.29
2023-05-07T09:44:54.554Z,29.23
2023-05-07T09:45:54.578Z,29.15
2023-05-07T09:46:54.644Z,29.16
2023-05-07T09:47:54.619Z,29.18
2023-05-07T09:48:54.601Z,29.16
2023-05-07T09:49:54.649Z,29.14
2023-05-07T09:50:54.618Z,29.08
2023-05-07T09:51:54.648Z,29.04
2023-05-07T09:52:54.699Z,28.99
2023-05-07T09:53:54.670Z,29.01
2023-05-07T09:54:54.678Z,28.95
2023-05-07T09:55:54.700Z,28.88
2023-05-07T09:56:54.711Z,28.88
2023-05-07T09:57:54.739Z,28.85
2023-05-07T09:58:54.776Z,28.79
2023-05-07T09:59:54.793Z,28.75
2023-05-07T10:00:54.832Z,28.70
2023-05-07T10:01:54.819Z,28.72
2023-05-07T10:02:54.889Z,28.64
2023-05-07T10:03:55.063Z,28.66
2023-05-07T10:04:54.915Z,28.62
2023-05-07T10:05:54.898Z,28.62
2023-05-07T10:06:54.911Z,28.61
2023-05-07T10:07:54.939Z,28.58
2023-05-07T10:08:54.938Z,28.59
2023-05-07T10:09:55.045Z,28.56
2023-05-07T10:10:54.973Z,28.55
2023-05-07T10:11:54.963Z,28.51
2023-05-07T10:12:55.052Z,28.50
2023-05-07T10:13:55.021Z,28.47
2023-05-07T10:14:55.042Z,28.45
2023-05-07T10:15:55.046Z,28.37
2023-05-07T10:16:55.046Z,28.40
2023-05-07T10:17:55.123Z,28.40
2023-05-07T10:18:55.141Z,28.41
2023-05-07T10:19:55.141Z,28.38
2023-05-07T10:20:55.156Z,28.34
2023-05-07T10:21:55.154Z,28.32
2023-05-07T10:22:55.192Z,28.29
2023-05-07T10:23:55.258Z,28.29
2023-05-07T10:24:55.260Z,28.27
2023-05-07T10:26:00.611Z,28.25
2023-05-07T10:26:56.273Z,28.28
2023-05-07T10:27:55.305Z,28.28
2023-05-07T10:28:55.394Z,28.25
2023-05-07T10:29:55.294Z,28.23
2023-05-07T10:30:55.353Z,28.24
2023-05-07T10:31:55.305Z,28.21
2023-05-07T10:32:55.334Z,28.23
2023-05-07T10:33:55.323Z,28.23
2023-05-07T10:34:55.334Z,28.22
2023-05-07T10:35:55.354Z,28.13
2023-05-07T10:36:55.341Z,28.18
2023-05-07T10:37:55.356Z,28.16
2023-05-07T10:38:55.345Z,28.17
2023-05-07T10:39:55.346Z,28.16
2023-05-07T10:40:55.337Z,28.17
2023-05-07T10:41:55.399Z,28.16
2023-05-07T10:42:55.368Z,28.17
2023-05-07T10:43:55.361Z,28.17
2023-05-07T10:44:55.370Z,28.15
2023-05-07T10:45:55.376Z,28.12
2023-05-07T10:46:55.363Z,28.08
2023-05-07T10:47:55.440Z,28.09
2023-05-07T10:48:55.396Z,28.09
2023-05-07T10:49:55.374Z,28.08
2023-05-07T10:50:55.396Z,28.10
2023-05-07T10:51:55.412Z,28.04
2023-05-07T10:52:55.410Z,28.06
2023-05-07T10:53:55.403Z,28.06
2023-05-07T10:54:55.425Z,28.07
2023-05-07T10:55:55.410Z,28.05
2023-05-07T10:56:55.405Z,28.07
2023-05-07T10:57:55.445Z,28.04
2023-05-07T10:58:55.417Z,28.02
2023-05-07T10:59:56.361Z,28.00
2023-05-07T11:00:55.419Z,28.04
2023-05-07T11:01:55.559Z,27.99
2023-05-07T11:02:55.514Z,28.02
2023-05-07T11:03:55.435Z,27.98
2023-05-07T11:04:55.472Z,27.98
2023-05-07T11:05:55.451Z,27.97
2023-05-07T11:06:55.461Z,28.00
2023-05-07T11:07:55.458Z,27.95
2023-05-07T11:08:55.453Z,27.97
2023-05-07T11:09:55.464Z,27.95
2023-05-07T11:10:55.463Z,27.95
2023-05-07T11:11:55.471Z,27.95
2023-05-07T11:12:55.561Z,27.94
2023-05-07T11:13:55.501Z,27.90
2023-05-07T11:14:55.566Z,27.90
2023-05-07T11:15:55.677Z,27.89
2023-05-07T11:16:55.581Z,27.89
2023-05-07T11:17:55.631Z,27.88
2023-05-07T11:18:55.613Z,27.87
2023-05-07T11:19:55.627Z,27.85
2023-05-07T11:20:55.636Z,27.83
2023-05-07T11:21:55.615Z,27.79
2023-05-07T11:22:56.592Z,27.79
2023-05-07T11:23:55.611Z,27.79
2023-05-07T11:24:55.612Z,27.80
2023-05-07T11:25:55.595Z,27.79
2023-05-07T11:26:55.592Z,27.79
2023-05-07T11:27:55.605Z,27.75
2023-05-07T11:28:55.604Z,27.76
2023-05-07T11:29:55.652Z,27.76
2023-05-07T11:30:55.589Z,27.78
2023-05-07T11:31:55.634Z,27.76
2023-05-07T11:32:55.691Z,27.77
2023-05-07T11:33:55.584Z,27.77
2023-05-07T11:34:55.591Z,27.75
2023-05-07T11:35:55.583Z,27.73
2023-05-07T11:36:55.582Z,27.70
2023-05-07T11:37:55.581Z,27.73
2023-05-07T11:38:55.623Z,27.72
2023-05-07T11:39:55.578Z,27.76
2023-05-07T11:40:55.562Z,27.72
2023-05-07T11:41:55.564Z,27.74
2023-05-07T11:42:55.551Z,27.70
2023-05-07T11:43:55.560Z,27.67
2023-05-07T11:44:55.581Z,27.69
2023-05-07T11:45:55.638Z,27.71
2023-05-07T11:46:55.579Z,27.71
2023-05-07T11:47:55.657Z,27.70
2023-05-07T11:48:55.554Z,27.70
2023-05-07T11:49:55.566Z,27.72
2023-05-07T11:50:55.560Z,27.71
2023-05-07T11:51:55.543Z,27.67
2023-05-07T11:52:55.525Z,27.68
2023-05-07T11:53:55.544Z,27.66
2023-05-07T11:54:55.528Z,27.67
2023-05-07T11:55:55.524Z,27.66
2023-05-07T11:56:55.510Z,27.63
2023-05-07T11:57:55.523Z,27.63
2023-05-07T11:58:55.487Z,27.63
2023-05-07T11:59:55.491Z,27.59
2023-05-07T12:00:55.522Z,27.51
2023-05-07T12:01:55.552Z,27.52
2023-05-07T12:02:55.634Z,27.52
2023-05-07T12:03:55.571Z,27.51
2023-05-07T12:04:55.613Z,27.53
2023-05-07T12:05:55.530Z,27.48
2023-05-07T12:06:55.533Z,27.52
2023-05-07T12:07:55.536Z,27.51
2023-05-07T12:08:55.531Z,27.53
2023-05-07T12:09:55.568Z,27.51
2023-05-07T12:10:55.541Z,27.47
2023-05-07T12:11:55.546Z,27.49
2023-05-07T12:12:55.568Z,27.47
2023-05-07T12:13:59.013Z,27.48
2023-05-07T12:14:55.531Z,27.49
2023-05-07T12:15:55.516Z,27.48
2023-05-07T12:16:55.584Z,27.45
2023-05-07T12:17:55.533Z,27.43
2023-05-07T12:18:55.491Z,27.48
2023-05-07T12:19:55.491Z,27.48
2023-05-07T12:20:55.488Z,27.49
2023-05-07T12:21:55.485Z,27.47
2023-05-07T12:22:55.469Z,27.48
2023-05-07T12:23:55.474Z,27.47
2023-05-07T12:24:55.547Z,27.47
2023-05-07T12:25:55.469Z,27.47
2023-05-07T12:26:55.495Z,27.51
2023-05-07T12:27:55.470Z,27.46
2023-05-07T12:28:55.480Z,27.45
2023-05-07T12:29:55.436Z,27.46
2023-05-07T12:30:55.432Z,27.43
2023-05-07T12:31:55.461Z,27.45
2023-05-07T12:32:55.490Z,27.41
2023-05-07T12:33:55.463Z,27.38
2023-05-07T12:34:55.408Z,27.41
2023-05-07T12:35:55.411Z,27.37
2023-05-07T12:36:55.414Z,27.37
2023-05-07T12:37:55.401Z,27.40
2023-05-07T12:38:55.402Z,27.34
2023-05-07T12:39:55.386Z,27.36
2023-05-07T12:40:55.402Z,27.35
2023-05-07T12:41:55.388Z,27.35
2023-05-07T12:42:55.389Z,27.36
2023-05-07T12:43:55.390Z,27.35
2023-05-07T12:44:55.398Z,27.33
2023-05-07T12:45:55.433Z,27.31
2023-05-07T12:46:55.434Z,27.28
2023-05-07T12:47:55.439Z,27.31
2023-05-07T12:48:55.384Z,27.28
2023-05-07T12:49:55.410Z,27.29
2023-05-07T12:50:55.382Z,27.27
2023-05-07T12:51:55.384Z,27.23
2023-05-07T12:52:55.371Z,27.24